YSNW/NOA METAR and TAF weather

Enter ICAO airport designator
Station Type Date Time Source
YSNW METAR 2019/10/23 02:00 UTC NOAA

YSNW 230200Z 06012KT CAVOK 27/15 Q1018 NOSIG


Station Type Date Time Source
YSNW Decoded METAR 2019/10/23 02:00 UTC NOAA

Nowra Ran Air Station, Australia (YSNW) 34-57S 150-32E 110M
Oct 22, 2019 - 10:00 PM EDT / 2019.10.23 0200 UTC
Wind: from the ENE (060 degrees) at 14 MPH (12 KT):0
Visibility: greater than 7 mile(s):0
Temperature: 80 F (27 C)
Dew Point: 59 F (15 C)
Relative Humidity: 47%
Pressure (altimeter): 30.06 in. Hg (1018 hPa)
ob: YSNW 230200Z 06012KT CAVOK 27/15 Q1018 NOSIG
cycle: 2

Station Type Date Time Source
YSNW TAF UTC NOAA

Error!

Example: see airport list